Terminal Aerodrome Forecast
Issued by NWS Jackson, MS

Home | Current Version | Previous Version | Text Only | Print | Product List | Glossary On
Versions: 1 2 3 4 5 6 7 8 9 10 11 12 13 14 15 16 17 18 19 20
000
FTUS44 KJAN 290537
TAFHBG
TAF
KHBG 290537Z 2906/3006 01003KT P6SM SKC
     FM291000 00000KT 5SM BR FEW002
     FM291330 33007KT P6SM SCT040
     FM292000 36007KT P6SM VCTS BKN050CB
     FM300200 30003KT P6SM SCT150=

USA.gov is the U.S. government's official web portal to all federal, state and local government web resources and services.